sensor_id;sensor_type;location;lat;lon;timestamp;P1;durP1;ratioP1;P2;durP2;ratioP2
23549;SDS011;11953;49.010;8.608;2022-08-07T00:02:30;0.77;;;0.40;;
23549;SDS011;11953;49.010;8.608;2022-08-07T00:05:25;2.35;;;0.80;;
23549;SDS011;11953;49.010;8.608;2022-08-07T00:08:13;4.15;;;0.88;;
23549;SDS011;11953;49.010;8.608;2022-08-07T00:11:00;0.40;;;0.40;;
23549;SDS011;11953;49.010;8.608;2022-08-07T00:13:50;1.60;;;0.50;;
23549;SDS011;11953;49.010;8.608;2022-08-07T00:16:38;1.48;;;0.40;;
23549;SDS011;11953;49.010;8.608;2022-08-07T00:19:27;5.05;;;0.60;;
23549;SDS011;11953;49.010;8.608;2022-08-07T00:22:35;1.15;;;0.35;;
23549;SDS011;11953;49.010;8.608;2022-08-07T00:25:22;0.68;;;0.55;;
23549;SDS011;11953;49.010;8.608;2022-08-07T00:28:10;0.88;;;0.40;;
23549;SDS011;11953;49.010;8.608;2022-08-07T00:30:59;2.55;;;0.40;;
23549;SDS011;11953;49.010;8.608;2022-08-07T00:33:49;0.60;;;0.55;;
23549;SDS011;11953;49.010;8.608;2022-08-07T00:36:38;1.63;;;0.40;;
23549;SDS011;11953;49.010;8.608;2022-08-07T00:39:27;1.65;;;0.50;;
23549;SDS011;11953;49.010;8.608;2022-08-07T00:42:14;0.40;;;0.40;;
23549;SDS011;11953;49.010;8.608;2022-08-07T00:45:02;1.23;;;0.68;;
23549;SDS011;11953;49.010;8.608;2022-08-07T00:47:51;2.50;;;0.50;;
23549;SDS011;11953;49.010;8.608;2022-08-07T00:50:58;1.13;;;0.50;;
23549;SDS011;11953;49.010;8.608;2022-08-07T00:53:46;1.73;;;0.43;;
23549;SDS011;11953;49.010;8.608;2022-08-07T00:56:40;0.57;;;0.50;;
23549;SDS011;11953;49.010;8.608;2022-08-07T00:59:29;3.13;;;0.68;;
23549;SDS011;11953;49.010;8.608;2022-08-07T01:02:20;1.30;;;0.50;;
23549;SDS011;11953;49.010;8.608;2022-08-07T01:05:13;1.85;;;0.50;;
23549;SDS011;11953;49.010;8.608;2022-08-07T01:08:04;0.73;;;0.40;;
23549;SDS011;11953;49.010;8.608;2022-08-07T01:10:54;1.38;;;0.40;;
23549;SDS011;11953;49.010;8.608;2022-08-07T01:14:01;1.98;;;0.80;;
23549;SDS011;11953;49.010;8.608;2022-08-07T01:16:49;1.17;;;0.47;;
23549;SDS011;11953;49.010;8.608;2022-08-07T01:19:38;0.55;;;0.40;;
23549;SDS011;11953;49.010;8.608;2022-08-07T01:22:39;2.22;;;0.80;;
23549;SDS011;11953;49.010;8.608;2022-08-07T01:28:40;1.38;;;0.40;;
23549;SDS011;11953;49.010;8.608;2022-08-07T01:31:35;1.27;;;0.57;;
23549;SDS011;11953;49.010;8.608;2022-08-07T01:34:32;1.20;;;0.50;;
23549;SDS011;11953;49.010;8.608;2022-08-07T01:37:28;3.97;;;0.50;;
23549;SDS011;11953;49.010;8.608;2022-08-07T01:40:20;0.90;;;0.55;;
23549;SDS011;11953;49.010;8.608;2022-08-07T01:43:14;1.25;;;0.60;;
23549;SDS011;11953;49.010;8.608;2022-08-07T01:46:02;0.45;;;0.35;;
23549;SDS011;11953;49.010;8.608;2022-08-07T01:48:51;1.40;;;0.55;;
23549;SDS011;11953;49.010;8.608;2022-08-07T01:51:41;0.55;;;0.40;;
23549;SDS011;11953;49.010;8.608;2022-08-07T01:54:48;2.05;;;0.45;;
23549;SDS011;11953;49.010;8.608;2022-08-07T01:57:42;1.20;;;0.50;;
23549;SDS011;11953;49.010;8.608;2022-08-07T02:00:52;0.38;;;0.38;;
23549;SDS011;11953;49.010;8.608;2022-08-07T02:04:08;1.05;;;0.50;;
23549;SDS011;11953;49.010;8.608;2022-08-07T02:06:59;1.17;;;0.50;;
23549;SDS011;11953;49.010;8.608;2022-08-07T02:09:48;0.70;;;0.40;;
23549;SDS011;11953;49.010;8.608;2022-08-07T02:12:45;1.65;;;0.55;;
23549;SDS011;11953;49.010;8.608;2022-08-07T02:15:42;1.15;;;0.50;;
23549;SDS011;11953;49.010;8.608;2022-08-07T02:18:30;1.40;;;0.57;;
23549;SDS011;11953;49.010;8.608;2022-08-07T02:21:19;1.02;;;0.40;;
23549;SDS011;11953;49.010;8.608;2022-08-07T02:24:09;0.57;;;0.47;;
23549;SDS011;11953;49.010;8.608;2022-08-07T02:27:02;0.73;;;0.40;;
23549;SDS011;11953;49.010;8.608;2022-08-07T02:29:53;2.88;;;0.40;;
23549;SDS011;11953;49.010;8.608;2022-08-07T02:32:51;0.50;;;0.50;;
23549;SDS011;11953;49.010;8.608;2022-08-07T02:35:53;1.00;;;0.40;;
23549;SDS011;11953;49.010;8.608;2022-08-07T02:39:02;0.50;;;0.50;;
23549;SDS011;11953;49.010;8.608;2022-08-07T02:42:05;3.55;;;0.50;;
23549;SDS011;11953;49.010;8.608;2022-08-07T02:45:02;0.77;;;0.50;;
23549;SDS011;11953;49.010;8.608;2022-08-07T02:48:13;1.42;;;0.40;;
23549;SDS011;11953;49.010;8.608;2022-08-07T02:51:04;3.03;;;0.60;;
23549;SDS011;11953;49.010;8.608;2022-08-07T02:54:20;0.45;;;0.45;;
23549;SDS011;11953;49.010;8.608;2022-08-07T02:57:11;2.33;;;0.60;;
23549;SDS011;11953;49.010;8.608;2022-08-07T03:00:02;1.20;;;0.52;;
23549;SDS011;11953;49.010;8.608;2022-08-07T03:02:55;2.05;;;0.50;;
23549;SDS011;11953;49.010;8.608;2022-08-07T03:05:43;0.85;;;0.50;;
23549;SDS011;11953;49.010;8.608;2022-08-07T03:08:32;0.60;;;0.40;;
23549;SDS011;11953;49.010;8.608;2022-08-07T03:11:19;0.80;;;0.50;;
23549;SDS011;11953;49.010;8.608;2022-08-07T03:14:13;3.70;;;0.68;;
23549;SDS011;11953;49.010;8.608;2022-08-07T03:17:02;0.80;;;0.50;;
23549;SDS011;11953;49.010;8.608;2022-08-07T03:19:53;1.23;;;0.40;;
23549;SDS011;11953;49.010;8.608;2022-08-07T03:22:44;2.92;;;0.40;;
23549;SDS011;11953;49.010;8.608;2022-08-07T03:25:35;1.05;;;0.50;;
23549;SDS011;11953;49.010;8.608;2022-08-07T03:28:27;1.55;;;0.60;;
23549;SDS011;11953;49.010;8.608;2022-08-07T03:31:24;3.20;;;0.50;;
23549;SDS011;11953;49.010;8.608;2022-08-07T03:34:29;0.95;;;0.40;;
23549;SDS011;11953;49.010;8.608;2022-08-07T03:37:24;1.58;;;0.50;;
23549;SDS011;11953;49.010;8.608;2022-08-07T03:40:17;2.83;;;0.65;;
23549;SDS011;11953;49.010;8.608;2022-08-07T03:43:06;2.05;;;0.40;;
23549;SDS011;11953;49.010;8.608;2022-08-07T03:46:02;1.60;;;0.40;;
23549;SDS011;11953;49.010;8.608;2022-08-07T03:49:04;2.15;;;0.40;;
23549;SDS011;11953;49.010;8.608;2022-08-07T03:54:48;2.88;;;0.60;;
23549;SDS011;11953;49.010;8.608;2022-08-07T03:57:40;2.65;;;0.50;;
23549;SDS011;11953;49.010;8.608;2022-08-07T04:00:53;0.50;;;0.50;;
23549;SDS011;11953;49.010;8.608;2022-08-07T04:03:47;0.50;;;0.47;;
23549;SDS011;11953;49.010;8.608;2022-08-07T04:06:41;0.70;;;0.50;;
23549;SDS011;11953;49.010;8.608;2022-08-07T04:09:34;2.50;;;0.70;;
23549;SDS011;11953;49.010;8.608;2022-08-07T04:12:29;0.73;;;0.60;;
23549;SDS011;11953;49.010;8.608;2022-08-07T04:15:19;1.45;;;0.47;;
23549;SDS011;11953;49.010;8.608;2022-08-07T04:18:10;1.20;;;0.50;;
23549;SDS011;11953;49.010;8.608;2022-08-07T04:21:17;1.23;;;0.55;;
23549;SDS011;11953;49.010;8.608;2022-08-07T04:24:07;0.77;;;0.50;;
23549;SDS011;11953;49.010;8.608;2022-08-07T04:27:17;0.63;;;0.40;;
23549;SDS011;11953;49.010;8.608;2022-08-07T04:30:11;0.50;;;0.45;;
23549;SDS011;11953;49.010;8.608;2022-08-07T04:33:23;0.50;;;0.47;;
23549;SDS011;11953;49.010;8.608;2022-08-07T04:36:12;1.75;;;0.73;;
23549;SDS011;11953;49.010;8.608;2022-08-07T04:39:07;1.23;;;0.60;;
23549;SDS011;11953;49.010;8.608;2022-08-07T04:41:55;1.13;;;0.60;;
23549;SDS011;11953;49.010;8.608;2022-08-07T04:44:43;0.57;;;0.50;;
23549;SDS011;11953;49.010;8.608;2022-08-07T04:47:40;0.95;;;0.50;;
23549;SDS011;11953;49.010;8.608;2022-08-07T04:50:50;1.30;;;0.55;;
23549;SDS011;11953;49.010;8.608;2022-08-07T04:53:43;1.08;;;0.57;;
23549;SDS011;11953;49.010;8.608;2022-08-07T04:56:51;1.08;;;0.50;;
23549;SDS011;11953;49.010;8.608;2022-08-07T05:00:05;0.55;;;0.40;;
23549;SDS011;11953;49.010;8.608;2022-08-07T05:03:09;0.50;;;0.40;;
23549;SDS011;11953;49.010;8.608;2022-08-07T05:06:34;1.90;;;0.60;;
23549;SDS011;11953;49.010;8.608;2022-08-07T05:09:29;0.87;;;0.60;;
23549;SDS011;11953;49.010;8.608;2022-08-07T05:12:34;2.93;;;0.47;;
23549;SDS011;11953;49.010;8.608;2022-08-07T05:15:43;1.02;;;0.47;;
23549;SDS011;11953;49.010;8.608;2022-08-07T05:18:37;0.95;;;0.40;;
23549;SDS011;11953;49.010;8.608;2022-08-07T05:21:29;1.20;;;0.50;;
23549;SDS011;11953;49.010;8.608;2022-08-07T05:24:38;2.55;;;0.50;;
23549;SDS011;11953;49.010;8.608;2022-08-07T05:27:28;0.65;;;0.38;;
23549;SDS011;11953;49.010;8.608;2022-08-07T05:30:38;0.68;;;0.50;;
23549;SDS011;11953;49.010;8.608;2022-08-07T05:33:33;1.02;;;0.40;;
23549;SDS011;11953;49.010;8.608;2022-08-07T05:36:23;0.77;;;0.30;;
23549;SDS011;11953;49.010;8.608;2022-08-07T05:39:21;2.97;;;0.52;;
23549;SDS011;11953;49.010;8.608;2022-08-07T05:42:28;3.20;;;0.50;;
23549;SDS011;11953;49.010;8.608;2022-08-07T05:45:23;1.80;;;0.50;;
23549;SDS011;11953;49.010;8.608;2022-08-07T05:48:33;0.90;;;0.40;;
23549;SDS011;11953;49.010;8.608;2022-08-07T05:51:40;2.03;;;0.80;;
23549;SDS011;11953;49.010;8.608;2022-08-07T05:54:32;1.05;;;0.30;;
23549;SDS011;11953;49.010;8.608;2022-08-07T05:57:39;2.25;;;0.50;;
23549;SDS011;11953;49.010;8.608;2022-08-07T06:00:30;2.03;;;0.40;;
23549;SDS011;11953;49.010;8.608;2022-08-07T06:03:23;0.85;;;0.40;;
23549;SDS011;11953;49.010;8.608;2022-08-07T06:06:34;1.02;;;0.40;;
23549;SDS011;11953;49.010;8.608;2022-08-07T06:09:31;0.50;;;0.45;;
23549;SDS011;11953;49.010;8.608;2022-08-07T06:12:38;0.88;;;0.35;;
23549;SDS011;11953;49.010;8.608;2022-08-07T06:15:27;2.38;;;0.57;;
23549;SDS011;11953;49.010;8.608;2022-08-07T06:18:30;1.00;;;0.38;;
23549;SDS011;11953;49.010;8.608;2022-08-07T06:21:19;1.08;;;0.30;;
23549;SDS011;11953;49.010;8.608;2022-08-07T06:24:29;1.10;;;0.30;;
23549;SDS011;11953;49.010;8.608;2022-08-07T06:27:36;1.45;;;0.30;;
23549;SDS011;11953;49.010;8.608;2022-08-07T06:30:44;4.18;;;0.50;;
23549;SDS011;11953;49.010;8.608;2022-08-07T06:33:39;1.33;;;0.45;;
23549;SDS011;11953;49.010;8.608;2022-08-07T06:36:26;1.45;;;0.40;;
23549;SDS011;11953;49.010;8.608;2022-08-07T06:39:20;2.63;;;0.47;;
23549;SDS011;11953;49.010;8.608;2022-08-07T06:42:29;1.67;;;0.60;;
23549;SDS011;11953;49.010;8.608;2022-08-07T06:45:53;0.98;;;0.40;;
23549;SDS011;11953;49.010;8.608;2022-08-07T06:48:45;2.05;;;0.50;;
23549;SDS011;11953;49.010;8.608;2022-08-07T06:51:37;0.90;;;0.40;;
23549;SDS011;11953;49.010;8.608;2022-08-07T06:54:37;2.58;;;0.50;;
23549;SDS011;11953;49.010;8.608;2022-08-07T06:57:47;1.30;;;0.50;;
23549;SDS011;11953;49.010;8.608;2022-08-07T07:00:44;1.25;;;0.70;;
23549;SDS011;11953;49.010;8.608;2022-08-07T07:03:38;0.68;;;0.63;;
23549;SDS011;11953;49.010;8.608;2022-08-07T07:06:34;0.95;;;0.60;;
23549;SDS011;11953;49.010;8.608;2022-08-07T07:09:43;1.17;;;0.60;;
23549;SDS011;11953;49.010;8.608;2022-08-07T07:12:34;1.48;;;0.77;;
23549;SDS011;11953;49.010;8.608;2022-08-07T07:15:35;1.65;;;0.70;;
23549;SDS011;11953;49.010;8.608;2022-08-07T07:18:27;2.33;;;1.02;;
23549;SDS011;11953;49.010;8.608;2022-08-07T07:21:33;1.10;;;0.60;;
23549;SDS011;11953;49.010;8.608;2022-08-07T07:24:46;1.73;;;0.70;;
23549;SDS011;11953;49.010;8.608;2022-08-07T07:27:48;3.47;;;0.90;;
23549;SDS011;11953;49.010;8.608;2022-08-07T07:30:49;1.98;;;0.70;;
23549;SDS011;11953;49.010;8.608;2022-08-07T07:33:38;3.28;;;0.80;;
23549;SDS011;11953;49.010;8.608;2022-08-07T07:36:39;2.72;;;0.90;;
23549;SDS011;11953;49.010;8.608;2022-08-07T07:39:32;1.98;;;0.70;;
23549;SDS011;11953;49.010;8.608;2022-08-07T07:42:38;4.05;;;1.00;;
23549;SDS011;11953;49.010;8.608;2022-08-07T07:45:26;2.10;;;0.98;;
23549;SDS011;11953;49.010;8.608;2022-08-07T07:48:36;1.63;;;0.80;;
23549;SDS011;11953;49.010;8.608;2022-08-07T07:51:29;3.92;;;0.75;;
23549;SDS011;11953;49.010;8.608;2022-08-07T07:54:38;2.50;;;0.88;;
23549;SDS011;11953;49.010;8.608;2022-08-07T07:57:35;1.92;;;0.90;;
23549;SDS011;11953;49.010;8.608;2022-08-07T08:00:37;1.42;;;0.80;;
23549;SDS011;11953;49.010;8.608;2022-08-07T08:03:31;2.17;;;1.00;;
23549;SDS011;11953;49.010;8.608;2022-08-07T08:06:42;2.92;;;1.00;;
23549;SDS011;11953;49.010;8.608;2022-08-07T08:09:37;1.35;;;0.82;;
23549;SDS011;11953;49.010;8.608;2022-08-07T08:12:45;5.43;;;0.80;;
23549;SDS011;11953;49.010;8.608;2022-08-07T08:15:45;2.15;;;0.90;;
23549;SDS011;11953;49.010;8.608;2022-08-07T08:18:53;3.97;;;1.00;;
23549;SDS011;11953;49.010;8.608;2022-08-07T08:21:43;2.17;;;1.08;;
23549;SDS011;11953;49.010;8.608;2022-08-07T08:24:52;2.55;;;1.00;;
23549;SDS011;11953;49.010;8.608;2022-08-07T08:28:19;0.98;;;0.80;;
23549;SDS011;11953;49.010;8.608;2022-08-07T08:31:23;2.97;;;1.00;;
23549;SDS011;11953;49.010;8.608;2022-08-07T08:34:32;1.38;;;0.80;;
23549;SDS011;11953;49.010;8.608;2022-08-07T08:37:22;2.55;;;0.90;;
23549;SDS011;11953;49.010;8.608;2022-08-07T08:40:33;1.48;;;0.90;;
23549;SDS011;11953;49.010;8.608;2022-08-07T08:43:30;1.92;;;1.02;;
23549;SDS011;11953;49.010;8.608;2022-08-07T08:46:30;4.28;;;0.90;;
23549;SDS011;11953;49.010;8.608;2022-08-07T08:49:31;2.35;;;1.15;;
23549;SDS011;11953;49.010;8.608;2022-08-07T08:52:49;3.15;;;1.13;;
23549;SDS011;11953;49.010;8.608;2022-08-07T08:55:49;2.40;;;1.10;;
23549;SDS011;11953;49.010;8.608;2022-08-07T08:58:44;1.25;;;0.95;;
23549;SDS011;11953;49.010;8.608;2022-08-07T09:01:41;2.25;;;1.27;;
23549;SDS011;11953;49.010;8.608;2022-08-07T09:04:35;1.40;;;0.90;;
23549;SDS011;11953;49.010;8.608;2022-08-07T09:07:30;1.92;;;1.00;;
23549;SDS011;11953;49.010;8.608;2022-08-07T09:10:43;2.25;;;0.80;;
23549;SDS011;11953;49.010;8.608;2022-08-07T09:13:36;1.20;;;0.93;;
23549;SDS011;11953;49.010;8.608;2022-08-07T09:19:24;3.50;;;1.00;;
23549;SDS011;11953;49.010;8.608;2022-08-07T09:22:41;2.67;;;0.90;;
23549;SDS011;11953;49.010;8.608;2022-08-07T09:26:04;2.80;;;0.98;;
23549;SDS011;11953;49.010;8.608;2022-08-07T09:29:06;5.35;;;0.80;;
23549;SDS011;11953;49.010;8.608;2022-08-07T09:32:27;5.72;;;0.82;;
23549;SDS011;11953;49.010;8.608;2022-08-07T09:35:27;2.58;;;0.43;;
23549;SDS011;11953;49.010;8.608;2022-08-07T09:38:46;0.70;;;0.45;;
23549;SDS011;11953;49.010;8.608;2022-08-07T09:41:47;1.08;;;0.60;;
23549;SDS011;11953;49.010;8.608;2022-08-07T09:44:51;2.08;;;0.70;;
23549;SDS011;11953;49.010;8.608;2022-08-07T09:48:08;1.58;;;0.75;;
23549;SDS011;11953;49.010;8.608;2022-08-07T09:51:07;2.38;;;1.00;;
23549;SDS011;11953;49.010;8.608;2022-08-07T09:54:25;1.50;;;0.68;;
23549;SDS011;11953;49.010;8.608;2022-08-07T09:57:25;2.97;;;0.85;;
23549;SDS011;11953;49.010;8.608;2022-08-07T10:00:33;2.50;;;0.50;;
23549;SDS011;11953;49.010;8.608;2022-08-07T10:03:37;1.25;;;0.50;;
23549;SDS011;11953;49.010;8.608;2022-08-07T10:10:39;1.00;;;0.55;;
23549;SDS011;11953;49.010;8.608;2022-08-07T10:13:58;1.23;;;0.60;;
23549;SDS011;11953;49.010;8.608;2022-08-07T10:17:02;1.60;;;0.75;;
23549;SDS011;11953;49.010;8.608;2022-08-07T10:20:02;1.48;;;0.65;;
23549;SDS011;11953;49.010;8.608;2022-08-07T10:23:11;2.45;;;0.70;;
23549;SDS011;11953;49.010;8.608;2022-08-07T10:26:35;0.77;;;0.47;;
23549;SDS011;11953;49.010;8.608;2022-08-07T10:29:45;1.00;;;0.43;;
23549;SDS011;11953;49.010;8.608;2022-08-07T10:32:59;0.68;;;0.40;;
23549;SDS011;11953;49.010;8.608;2022-08-07T10:36:03;1.10;;;0.57;;
23549;SDS011;11953;49.010;8.608;2022-08-07T10:39:17;0.45;;;0.40;;
23549;SDS011;11953;49.010;8.608;2022-08-07T10:42:34;1.20;;;0.50;;
23549;SDS011;11953;49.010;8.608;2022-08-07T10:45:26;2.77;;;0.60;;
23549;SDS011;11953;49.010;8.608;2022-08-07T10:48:39;1.08;;;0.40;;
23549;SDS011;11953;49.010;8.608;2022-08-07T10:51:34;1.50;;;0.40;;
23549;SDS011;11953;49.010;8.608;2022-08-07T10:54:44;1.58;;;0.30;;
23549;SDS011;11953;49.010;8.608;2022-08-07T10:57:57;1.00;;;0.52;;
23549;SDS011;11953;49.010;8.608;2022-08-07T11:00:56;1.90;;;0.50;;
23549;SDS011;11953;49.010;8.608;2022-08-07T11:03:58;1.58;;;0.47;;
23549;SDS011;11953;49.010;8.608;2022-08-07T11:07:09;2.42;;;0.52;;
23549;SDS011;11953;49.010;8.608;2022-08-07T11:10:27;4.07;;;0.40;;
23549;SDS011;11953;49.010;8.608;2022-08-07T11:13:23;1.67;;;0.45;;
23549;SDS011;11953;49.010;8.608;2022-08-07T11:16:37;0.95;;;0.40;;
23549;SDS011;11953;49.010;8.608;2022-08-07T11:19:37;1.70;;;0.40;;
23549;SDS011;11953;49.010;8.608;2022-08-07T11:22:32;1.65;;;0.50;;
23549;SDS011;11953;49.010;8.608;2022-08-07T11:25:31;1.80;;;0.60;;
23549;SDS011;11953;49.010;8.608;2022-08-07T11:31:28;1.50;;;0.30;;
23549;SDS011;11953;49.010;8.608;2022-08-07T11:34:27;1.02;;;0.30;;
23549;SDS011;11953;49.010;8.608;2022-08-07T11:37:32;0.50;;;0.40;;
23549;SDS011;11953;49.010;8.608;2022-08-07T11:40:55;2.42;;;0.80;;
23549;SDS011;11953;49.010;8.608;2022-08-07T11:43:48;0.77;;;0.40;;
23549;SDS011;11953;49.010;8.608;2022-08-07T11:46:57;2.13;;;0.50;;
23549;SDS011;11953;49.010;8.608;2022-08-07T11:49:59;1.55;;;0.30;;
23549;SDS011;11953;49.010;8.608;2022-08-07T11:53:15;1.80;;;0.43;;
23549;SDS011;11953;49.010;8.608;2022-08-07T11:56:16;0.85;;;0.40;;
23549;SDS011;11953;49.010;8.608;2022-08-07T11:59:16;1.85;;;0.40;;
23549;SDS011;11953;49.010;8.608;2022-08-07T12:02:46;0.63;;;0.30;;
23549;SDS011;11953;49.010;8.608;2022-08-07T12:05:53;0.28;;;0.20;;
23549;SDS011;11953;49.010;8.608;2022-08-07T12:09:12;1.58;;;0.38;;
23549;SDS011;11953;49.010;8.608;2022-08-07T12:12:09;2.83;;;0.40;;
23549;SDS011;11953;49.010;8.608;2022-08-07T12:14:58;1.75;;;0.38;;
23549;SDS011;11953;49.010;8.608;2022-08-07T12:17:52;0.60;;;0.30;;
23549;SDS011;11953;49.010;8.608;2022-08-07T12:20:56;0.52;;;0.32;;
23549;SDS011;11953;49.010;8.608;2022-08-07T12:23:53;0.82;;;0.30;;
23549;SDS011;11953;49.010;8.608;2022-08-07T12:26:57;0.77;;;0.35;;
23549;SDS011;11953;49.010;8.608;2022-08-07T12:30:01;1.40;;;0.40;;
23549;SDS011;11953;49.010;8.608;2022-08-07T12:32:53;0.90;;;0.35;;
23549;SDS011;11953;49.010;8.608;2022-08-07T12:35:53;1.40;;;0.30;;
23549;SDS011;11953;49.010;8.608;2022-08-07T12:38:46;1.07;;;0.40;;
23549;SDS011;11953;49.010;8.608;2022-08-07T12:41:42;2.80;;;0.30;;
23549;SDS011;11953;49.010;8.608;2022-08-07T12:44:39;0.70;;;0.40;;
23549;SDS011;11953;49.010;8.608;2022-08-07T12:47:31;1.33;;;0.40;;
23549;SDS011;11953;49.010;8.608;2022-08-07T12:50:26;1.83;;;0.52;;
23549;SDS011;11953;49.010;8.608;2022-08-07T12:53:34;0.60;;;0.40;;
23549;SDS011;11953;49.010;8.608;2022-08-07T12:56:48;0.60;;;0.40;;
23549;SDS011;11953;49.010;8.608;2022-08-07T12:59:40;0.88;;;0.40;;
23549;SDS011;11953;49.010;8.608;2022-08-07T13:02:45;0.93;;;0.35;;
23549;SDS011;11953;49.010;8.608;2022-08-07T13:05:52;2.00;;;0.40;;
23549;SDS011;11953;49.010;8.608;2022-08-07T13:09:10;1.85;;;0.47;;
23549;SDS011;11953;49.010;8.608;2022-08-07T13:12:27;0.63;;;0.50;;
23549;SDS011;11953;49.010;8.608;2022-08-07T13:15:25;1.05;;;0.40;;
23549;SDS011;11953;49.010;8.608;2022-08-07T13:18:20;0.70;;;0.22;;
23549;SDS011;11953;49.010;8.608;2022-08-07T13:21:14;2.15;;;0.40;;
23549;SDS011;11953;49.010;8.608;2022-08-07T13:24:29;0.98;;;0.40;;
23549;SDS011;11953;49.010;8.608;2022-08-07T13:27:39;2.30;;;0.35;;
23549;SDS011;11953;49.010;8.608;2022-08-07T13:30:51;0.30;;;0.20;;
23549;SDS011;11953;49.010;8.608;2022-08-07T13:33:54;1.55;;;0.30;;
23549;SDS011;11953;49.010;8.608;2022-08-07T13:37:07;1.38;;;0.50;;
23549;SDS011;11953;49.010;8.608;2022-08-07T13:40:16;0.20;;;0.20;;
23549;SDS011;11953;49.010;8.608;2022-08-07T13:43:26;1.80;;;0.50;;
23549;SDS011;11953;49.010;8.608;2022-08-07T13:46:18;2.63;;;0.30;;
23549;SDS011;11953;49.010;8.608;2022-08-07T13:49:15;0.95;;;0.28;;
23549;SDS011;11953;49.010;8.608;2022-08-07T13:52:25;1.27;;;0.40;;
23549;SDS011;11953;49.010;8.608;2022-08-07T13:55:24;1.67;;;0.73;;
23549;SDS011;11953;49.010;8.608;2022-08-07T13:58:17;1.25;;;0.40;;
23549;SDS011;11953;49.010;8.608;2022-08-07T14:01:25;1.58;;;0.30;;
23549;SDS011;11953;49.010;8.608;2022-08-07T14:04:17;0.40;;;0.37;;
23549;SDS011;11953;49.010;8.608;2022-08-07T14:07:14;0.30;;;0.30;;
23549;SDS011;11953;49.010;8.608;2022-08-07T14:10:03;1.10;;;0.38;;
23549;SDS011;11953;49.010;8.608;2022-08-07T14:13:04;2.05;;;0.25;;
23549;SDS011;11953;49.010;8.608;2022-08-07T14:15:53;3.40;;;0.52;;
23549;SDS011;11953;49.010;8.608;2022-08-07T14:18:46;1.13;;;0.30;;
23549;SDS011;11953;49.010;8.608;2022-08-07T14:21:42;1.13;;;0.40;;
23549;SDS011;11953;49.010;8.608;2022-08-07T14:24:51;0.32;;;0.30;;
23549;SDS011;11953;49.010;8.608;2022-08-07T14:27:44;0.95;;;0.30;;
23549;SDS011;11953;49.010;8.608;2022-08-07T14:30:55;1.15;;;0.30;;
23549;SDS011;11953;49.010;8.608;2022-08-07T14:33:46;4.25;;;0.65;;
23549;SDS011;11953;49.010;8.608;2022-08-07T14:36:33;2.92;;;0.40;;
23549;SDS011;11953;49.010;8.608;2022-08-07T14:39:23;1.45;;;0.40;;
23549;SDS011;11953;49.010;8.608;2022-08-07T14:42:31;1.40;;;0.30;;
23549;SDS011;11953;49.010;8.608;2022-08-07T14:45:41;3.17;;;0.80;;
23549;SDS011;11953;49.010;8.608;2022-08-07T14:48:35;1.52;;;0.40;;
23549;SDS011;11953;49.010;8.608;2022-08-07T14:51:25;1.40;;;0.50;;
23549;SDS011;11953;49.010;8.608;2022-08-07T14:54:34;0.98;;;0.40;;
23549;SDS011;11953;49.010;8.608;2022-08-07T14:57:27;1.60;;;0.30;;
23549;SDS011;11953;49.010;8.608;2022-08-07T15:00:35;0.50;;;0.40;;
23549;SDS011;11953;49.010;8.608;2022-08-07T15:03:26;0.98;;;0.32;;
23549;SDS011;11953;49.010;8.608;2022-08-07T15:06:36;1.48;;;0.70;;
23549;SDS011;11953;49.010;8.608;2022-08-07T15:09:31;1.85;;;0.50;;
23549;SDS011;11953;49.010;8.608;2022-08-07T15:12:44;2.92;;;0.25;;
23549;SDS011;11953;49.010;8.608;2022-08-07T15:15:40;0.57;;;0.30;;
23549;SDS011;11953;49.010;8.608;2022-08-07T15:18:39;5.15;;;0.50;;
23549;SDS011;11953;49.010;8.608;2022-08-07T15:21:32;3.08;;;0.40;;
23549;SDS011;11953;49.010;8.608;2022-08-07T15:24:45;2.67;;;0.40;;
23549;SDS011;11953;49.010;8.608;2022-08-07T15:27:58;0.77;;;0.30;;
23549;SDS011;11953;49.010;8.608;2022-08-07T15:31:07;3.40;;;0.40;;
23549;SDS011;11953;49.010;8.608;2022-08-07T15:33:56;1.15;;;0.40;;
23549;SDS011;11953;49.010;8.608;2022-08-07T15:36:45;0.95;;;0.38;;
23549;SDS011;11953;49.010;8.608;2022-08-07T15:39:56;0.90;;;0.30;;
23549;SDS011;11953;49.010;8.608;2022-08-07T15:42:50;1.55;;;0.30;;
23549;SDS011;11953;49.010;8.608;2022-08-07T15:45:40;0.40;;;0.20;;
23549;SDS011;11953;49.010;8.608;2022-08-07T15:48:43;0.50;;;0.20;;
23549;SDS011;11953;49.010;8.608;2022-08-07T15:51:51;3.67;;;0.30;;
23549;SDS011;11953;49.010;8.608;2022-08-07T15:54:41;1.00;;;0.40;;
23549;SDS011;11953;49.010;8.608;2022-08-07T15:57:33;0.73;;;0.40;;
23549;SDS011;11953;49.010;8.608;2022-08-07T16:00:33;0.30;;;0.20;;
23549;SDS011;11953;49.010;8.608;2022-08-07T16:03:24;0.50;;;0.30;;
23549;SDS011;11953;49.010;8.608;2022-08-07T16:06:32;1.15;;;0.30;;
23549;SDS011;11953;49.010;8.608;2022-08-07T16:09:24;1.08;;;0.40;;
23549;SDS011;11953;49.010;8.608;2022-08-07T16:12:32;0.73;;;0.30;;
23549;SDS011;11953;49.010;8.608;2022-08-07T16:15:47;0.93;;;0.30;;
23549;SDS011;11953;49.010;8.608;2022-08-07T16:18:57;2.47;;;0.40;;
23549;SDS011;11953;49.010;8.608;2022-08-07T16:21:58;0.60;;;0.40;;
23549;SDS011;11953;49.010;8.608;2022-08-07T16:25:16;2.50;;;0.35;;
23549;SDS011;11953;49.010;8.608;2022-08-07T16:28:41;2.03;;;0.30;;
23549;SDS011;11953;49.010;8.608;2022-08-07T16:31:57;1.35;;;0.30;;
23549;SDS011;11953;49.010;8.608;2022-08-07T16:34:49;0.25;;;0.20;;
23549;SDS011;11953;49.010;8.608;2022-08-07T16:38:01;0.35;;;0.20;;
23549;SDS011;11953;49.010;8.608;2022-08-07T16:45:01;1.25;;;0.50;;
23549;SDS011;11953;49.010;8.608;2022-08-07T16:48:31;0.90;;;0.30;;
23549;SDS011;11953;49.010;8.608;2022-08-07T16:52:07;0.80;;;0.20;;
23549;SDS011;11953;49.010;8.608;2022-08-07T16:55:24;2.72;;;0.50;;
23549;SDS011;11953;49.010;8.608;2022-08-07T16:58:37;1.00;;;0.40;;
23549;SDS011;11953;49.010;8.608;2022-08-07T17:01:58;1.00;;;0.45;;
23549;SDS011;11953;49.010;8.608;2022-08-07T17:04:57;0.93;;;0.50;;
23549;SDS011;11953;49.010;8.608;2022-08-07T17:08:18;0.50;;;0.30;;
23549;SDS011;11953;49.010;8.608;2022-08-07T17:11:40;0.40;;;0.30;;
23549;SDS011;11953;49.010;8.608;2022-08-07T17:14:51;1.20;;;0.40;;
23549;SDS011;11953;49.010;8.608;2022-08-07T17:17:50;0.70;;;0.38;;
23549;SDS011;11953;49.010;8.608;2022-08-07T17:20:42;0.55;;;0.30;;
23549;SDS011;11953;49.010;8.608;2022-08-07T17:23:33;1.00;;;0.50;;
23549;SDS011;11953;49.010;8.608;2022-08-07T17:26:27;0.40;;;0.40;;
23549;SDS011;11953;49.010;8.608;2022-08-07T17:29:38;1.23;;;0.50;;
23549;SDS011;11953;49.010;8.608;2022-08-07T17:33:13;1.48;;;0.50;;
23549;SDS011;11953;49.010;8.608;2022-08-07T17:36:24;1.50;;;0.40;;
23549;SDS011;11953;49.010;8.608;2022-08-07T17:39:39;1.13;;;0.40;;
23549;SDS011;11953;49.010;8.608;2022-08-07T17:42:50;1.38;;;0.40;;
23549;SDS011;11953;49.010;8.608;2022-08-07T17:45:49;2.58;;;0.75;;
23549;SDS011;11953;49.010;8.608;2022-08-07T17:48:43;1.73;;;0.50;;
23549;SDS011;11953;49.010;8.608;2022-08-07T17:51:43;0.82;;;0.32;;
23549;SDS011;11953;49.010;8.608;2022-08-07T17:54:46;1.98;;;0.40;;
23549;SDS011;11953;49.010;8.608;2022-08-07T17:57:40;0.20;;;0.20;;
23549;SDS011;11953;49.010;8.608;2022-08-07T18:00:46;2.75;;;0.55;;
23549;SDS011;11953;49.010;8.608;2022-08-07T18:03:39;4.03;;;0.57;;
23549;SDS011;11953;49.010;8.608;2022-08-07T18:06:55;2.65;;;0.40;;
23549;SDS011;11953;49.010;8.608;2022-08-07T18:10:07;0.63;;;0.40;;
23549;SDS011;11953;49.010;8.608;2022-08-07T18:13:17;0.80;;;0.50;;
23549;SDS011;11953;49.010;8.608;2022-08-07T18:16:28;4.15;;;0.50;;
23549;SDS011;11953;49.010;8.608;2022-08-07T18:19:24;0.93;;;0.50;;
23549;SDS011;11953;49.010;8.608;2022-08-07T18:22:43;1.65;;;0.30;;
23549;SDS011;11953;49.010;8.608;2022-08-07T18:25:41;2.50;;;0.40;;
23549;SDS011;11953;49.010;8.608;2022-08-07T18:28:54;1.73;;;0.30;;
23549;SDS011;11953;49.010;8.608;2022-08-07T18:32:14;0.73;;;0.40;;